sensor_id;sensor_type;location;lat;lon;timestamp;pressure;altitude;pressure_sealevel;temperature;humidity
79625;BME280;69101;45.534;10.218;2023-04-08T00:01:27;99871.03;;;19.29;33.33
79625;BME280;69101;45.534;10.218;2023-04-08T00:03:53;99868.59;;;19.27;33.45
79625;BME280;69101;45.534;10.218;2023-04-08T00:06:18;99872.59;;;19.23;33.58
79625;BME280;69101;45.534;10.218;2023-04-08T00:08:43;99872.84;;;19.28;33.27
79625;BME280;69101;45.534;10.218;2023-04-08T00:11:09;99865.50;;;19.24;33.29
79625;BME280;69101;45.534;10.218;2023-04-08T00:13:35;99859.88;;;19.27;33.22
79625;BME280;69101;45.534;10.218;2023-04-08T00:16:00;99863.31;;;19.27;33.43
79625;BME280;69101;45.534;10.218;2023-04-08T00:18:26;99864.31;;;19.26;33.21
79625;BME280;69101;45.534;10.218;2023-04-08T00:20:52;99866.34;;;19.24;33.57
79625;BME280;69101;45.534;10.218;2023-04-08T00:23:17;99859.63;;;19.22;33.46
79625;BME280;69101;45.534;10.218;2023-04-08T00:25:44;99865.09;;;19.20;33.58
79625;BME280;69101;45.534;10.218;2023-04-08T00:28:09;99862.44;;;19.20;33.54
79625;BME280;69101;45.534;10.218;2023-04-08T00:30:35;99863.44;;;19.19;33.61
79625;BME280;69101;45.534;10.218;2023-04-08T00:33:00;99861.00;;;19.18;33.41
79625;BME280;69101;45.534;10.218;2023-04-08T00:35:25;99851.25;;;19.18;33.58
79625;BME280;69101;45.534;10.218;2023-04-08T00:37:51;99848.63;;;19.18;33.29
79625;BME280;69101;45.534;10.218;2023-04-08T00:40:16;99847.81;;;19.18;33.47
79625;BME280;69101;45.534;10.218;2023-04-08T00:42:42;99852.28;;;19.17;33.44
79625;BME280;69101;45.534;10.218;2023-04-08T00:45:08;99848.63;;;19.18;33.09
79625;BME280;69101;45.534;10.218;2023-04-08T00:47:34;99849.44;;;19.19;33.27
79625;BME280;69101;45.534;10.218;2023-04-08T00:50:00;99854.72;;;19.19;33.31
79625;BME280;69101;45.534;10.218;2023-04-08T00:52:25;99850.81;;;19.15;33.38
79625;BME280;69101;45.534;10.218;2023-04-08T00:54:50;99844.28;;;19.11;33.25
79625;BME280;69101;45.534;10.218;2023-04-08T00:57:16;99848.31;;;19.07;33.17
79625;BME280;69101;45.534;10.218;2023-04-08T00:59:41;99854.41;;;19.07;33.21
79625;BME280;69101;45.534;10.218;2023-04-08T01:05:01;99859.66;;;19.07;33.13
79625;BME280;69101;45.534;10.218;2023-04-08T01:07:31;99851.13;;;19.05;33.17
79625;BME280;69101;45.534;10.218;2023-04-08T01:10:01;99851.75;;;19.07;33.30
79625;BME280;69101;45.534;10.218;2023-04-08T01:12:31;99848.88;;;19.02;33.43
79625;BME280;69101;45.534;10.218;2023-04-08T01:15:04;99852.13;;;19.04;33.62
79625;BME280;69101;45.534;10.218;2023-04-08T01:17:31;99844.59;;;19.01;33.46
79625;BME280;69101;45.534;10.218;2023-04-08T01:19:59;99837.88;;;18.99;33.05
79625;BME280;69101;45.534;10.218;2023-04-08T01:22:54;99844.59;;;19.01;33.65
79625;BME280;69101;45.534;10.218;2023-04-08T01:25:48;99849.22;;;18.99;33.28
79625;BME280;69101;45.534;10.218;2023-04-08T01:28:16;99841.91;;;18.95;33.47
79625;BME280;69101;45.534;10.218;2023-04-08T01:30:43;99835.44;;;18.97;33.22
79625;BME280;69101;45.534;10.218;2023-04-08T01:33:12;99833.59;;;18.98;33.14
79625;BME280;69101;45.534;10.218;2023-04-08T01:35:38;99836.78;;;18.93;33.13
79625;BME280;69101;45.534;10.218;2023-04-08T01:38:06;99834.59;;;18.97;33.15
79625;BME280;69101;45.534;10.218;2023-04-08T01:40:34;99839.25;;;18.95;33.19
79625;BME280;69101;45.534;10.218;2023-04-08T01:43:00;99841.91;;;18.95;33.04
79625;BME280;69101;45.534;10.218;2023-04-08T01:45:27;99834.16;;;18.93;33.24
79625;BME280;69101;45.534;10.218;2023-04-08T01:47:54;99829.25;;;18.90;32.92
79625;BME280;69101;45.534;10.218;2023-04-08T01:50:21;99840.03;;;18.95;32.83
79625;BME280;69101;45.534;10.218;2023-04-08T01:52:47;99839.41;;;18.93;32.73
79625;BME280;69101;45.534;10.218;2023-04-08T01:55:14;99842.25;;;18.92;32.94
79625;BME280;69101;45.534;10.218;2023-04-08T01:57:40;99840.44;;;18.92;32.84
79625;BME280;69101;45.534;10.218;2023-04-08T02:00:09;99839.00;;;18.90;33.09
79625;BME280;69101;45.534;10.218;2023-04-08T02:02:37;99833.47;;;18.85;32.83
79625;BME280;69101;45.534;10.218;2023-04-08T02:05:05;99844.63;;;18.87;32.85
79625;BME280;69101;45.534;10.218;2023-04-08T02:07:30;99837.72;;;18.86;33.05
79625;BME280;69101;45.534;10.218;2023-04-08T02:09:55;99841.19;;;18.86;33.03
79625;BME280;69101;45.534;10.218;2023-04-08T02:12:21;99836.91;;;18.85;32.98
79625;BME280;69101;45.534;10.218;2023-04-08T02:14:47;99834.25;;;18.85;32.92
79625;BME280;69101;45.534;10.218;2023-04-08T02:17:20;99834.91;;;18.87;33.10
79625;BME280;69101;45.534;10.218;2023-04-08T02:19:58;99836.91;;;18.85;33.00
79625;BME280;69101;45.534;10.218;2023-04-08T02:22:36;99841.19;;;18.86;33.06
79625;BME280;69101;45.534;10.218;2023-04-08T02:25:03;99837.91;;;18.84;32.94
79625;BME280;69101;45.534;10.218;2023-04-08T02:27:33;99842.56;;;18.82;33.07
79625;BME280;69101;45.534;10.218;2023-04-08T02:30:03;99842.16;;;18.85;33.06
79625;BME280;69101;45.534;10.218;2023-04-08T02:32:31;99849.91;;;18.87;32.86
79625;BME280;69101;45.534;10.218;2023-04-08T02:34:58;99848.88;;;18.88;32.93
79625;BME280;69101;45.534;10.218;2023-04-08T02:37:25;99849.28;;;18.85;33.01
79625;BME280;69101;45.534;10.218;2023-04-08T02:39:52;99843.56;;;18.81;32.96
79625;BME280;69101;45.534;10.218;2023-04-08T02:42:17;99851.81;;;18.78;33.00
79625;BME280;69101;45.534;10.218;2023-04-08T02:44:42;99845.91;;;18.76;32.95
79625;BME280;69101;45.534;10.218;2023-04-08T02:47:08;99853.81;;;18.76;32.96
79625;BME280;69101;45.534;10.218;2023-04-08T02:49:33;99853.63;;;18.77;32.97
79625;BME280;69101;45.534;10.218;2023-04-08T02:51:59;99849.03;;;18.80;32.95
79625;BME280;69101;45.534;10.218;2023-04-08T02:54:24;99851.44;;;18.81;32.66
79625;BME280;69101;45.534;10.218;2023-04-08T02:56:49;99845.91;;;18.76;32.59
79625;BME280;69101;45.534;10.218;2023-04-08T02:59:15;99843.28;;;18.76;32.52
79625;BME280;69101;45.534;10.218;2023-04-08T03:01:41;99846.19;;;18.81;32.26
79625;BME280;69101;45.534;10.218;2023-04-08T03:04:07;99841.91;;;18.80;32.37
79625;BME280;69101;45.534;10.218;2023-04-08T03:06:32;99842.28;;;18.77;32.29
79625;BME280;69101;45.534;10.218;2023-04-08T03:08:57;99839.66;;;18.77;32.49
79625;BME280;69101;45.534;10.218;2023-04-08T03:11:23;99838.03;;;18.76;32.63
79625;BME280;69101;45.534;10.218;2023-04-08T03:13:48;99835.75;;;18.73;32.67
79625;BME280;69101;45.534;10.218;2023-04-08T03:16:13;99839.56;;;18.70;32.61
79625;BME280;69101;45.534;10.218;2023-04-08T03:18:39;99829.84;;;18.71;32.49
79625;BME280;69101;45.534;10.218;2023-04-08T03:21:05;99834.75;;;18.74;32.62
79625;BME280;69101;45.534;10.218;2023-04-08T03:23:30;99831.66;;;18.70;32.55
79625;BME280;69101;45.534;10.218;2023-04-08T03:25:56;99831.66;;;18.70;32.45
79625;BME280;69101;45.534;10.218;2023-04-08T03:28:21;99832.84;;;18.68;32.38
79625;BME280;69101;45.534;10.218;2023-04-08T03:30:46;99837.84;;;18.63;32.66
79625;BME280;69101;45.534;10.218;2023-04-08T03:33:12;99844.84;;;18.70;32.34
79625;BME280;69101;45.534;10.218;2023-04-08T03:35:37;99837.50;;;18.66;32.49
79625;BME280;69101;45.534;10.218;2023-04-08T03:38:03;99843.13;;;18.63;32.51
79625;BME280;69101;45.534;10.218;2023-04-08T03:40:28;99830.94;;;18.62;32.63
79625;BME280;69101;45.534;10.218;2023-04-08T03:42:53;99835.41;;;18.61;32.47
79625;BME280;69101;45.534;10.218;2023-04-08T03:45:19;99828.69;;;18.59;32.53
79625;BME280;69101;45.534;10.218;2023-04-08T03:47:44;99834.41;;;18.62;32.66
79625;BME280;69101;45.534;10.218;2023-04-08T03:50:10;99838.06;;;18.61;32.54
79625;BME280;69101;45.534;10.218;2023-04-08T03:52:35;99835.41;;;18.61;32.59
79625;BME280;69101;45.534;10.218;2023-04-08T03:55:01;99848.75;;;18.60;32.36
79625;BME280;69101;45.534;10.218;2023-04-08T03:57:26;99838.97;;;18.54;32.49
79625;BME280;69101;45.534;10.218;2023-04-08T03:59:52;99842.22;;;18.56;32.59
79625;BME280;69101;45.534;10.218;2023-04-08T04:02:17;99848.47;;;18.55;32.52
79625;BME280;69101;45.534;10.218;2023-04-08T04:04:42;99843.22;;;18.55;32.38
79625;BME280;69101;45.534;10.218;2023-04-08T04:07:08;99847.84;;;18.53;32.66
79625;BME280;69101;45.534;10.218;2023-04-08T04:09:33;99840.16;;;18.51;32.50
79625;BME280;69101;45.534;10.218;2023-04-08T04:11:59;99844.25;;;18.54;32.59
79625;BME280;69101;45.534;10.218;2023-04-08T04:14:24;99830.06;;;18.55;32.58
79625;BME280;69101;45.534;10.218;2023-04-08T04:16:50;99830.25;;;18.53;32.45
79625;BME280;69101;45.534;10.218;2023-04-08T04:19:15;99839.97;;;18.53;32.56
79625;BME280;69101;45.534;10.218;2023-04-08T04:21:42;99830.81;;;18.49;32.45
79625;BME280;69101;45.534;10.218;2023-04-08T04:24:07;99836.06;;;18.49;32.59
79625;BME280;69101;45.534;10.218;2023-04-08T04:26:33;99836.22;;;18.47;32.53
79625;BME280;69101;45.534;10.218;2023-04-08T04:28:58;99844.75;;;18.49;32.45
79625;BME280;69101;45.534;10.218;2023-04-08T04:31:24;99838.69;;;18.49;32.65
79625;BME280;69101;45.534;10.218;2023-04-08T04:33:53;99836.34;;;18.54;32.30
79625;BME280;69101;45.534;10.218;2023-04-08T04:36:19;99827.59;;;18.53;32.55
79625;BME280;69101;45.534;10.218;2023-04-08T04:38:44;99836.06;;;18.49;32.32
79625;BME280;69101;45.534;10.218;2023-04-08T04:41:10;99844.25;;;18.54;32.28
79625;BME280;69101;45.534;10.218;2023-04-08T04:43:36;99841.97;;;18.51;32.53
79625;BME280;69101;45.534;10.218;2023-04-08T04:46:01;99832.69;;;18.55;32.15
79625;BME280;69101;45.534;10.218;2023-04-08T04:48:31;99849.78;;;18.59;32.19
79625;BME280;69101;45.534;10.218;2023-04-08T04:50:57;99848.31;;;18.56;32.35
79625;BME280;69101;45.534;10.218;2023-04-08T04:53:24;99843.84;;;18.57;32.23
79625;BME280;69101;45.534;10.218;2023-04-08T04:55:50;99845.41;;;18.51;32.38
79625;BME280;69101;45.534;10.218;2023-04-08T04:58:16;99848.84;;;18.52;32.57
79625;BME280;69101;45.534;10.218;2023-04-08T05:00:41;99844.97;;;18.48;32.57
79625;BME280;69101;45.534;10.218;2023-04-08T05:03:06;99844.97;;;18.48;32.62
79625;BME280;69101;45.534;10.218;2023-04-08T05:05:32;99849.22;;;18.49;32.54
79625;BME280;69101;45.534;10.218;2023-04-08T05:07:57;99846.59;;;18.49;32.41
79625;BME280;69101;45.534;10.218;2023-04-08T05:10:22;99842.19;;;18.41;32.50
79625;BME280;69101;45.534;10.218;2023-04-08T05:12:48;99858.44;;;18.45;32.62
79625;BME280;69101;45.534;10.218;2023-04-08T05:15:13;99849.72;;;18.44;32.60
79625;BME280;69101;45.534;10.218;2023-04-08T05:17:38;99865.19;;;18.47;32.39
79625;BME280;69101;45.534;10.218;2023-04-08T05:20:04;99860.56;;;18.49;32.40
79625;BME280;69101;45.534;10.218;2023-04-08T05:22:30;99864.84;;;18.50;32.44
79625;BME280;69101;45.534;10.218;2023-04-08T05:24:56;99863.19;;;18.49;32.08
79625;BME280;69101;45.534;10.218;2023-04-08T05:27:21;99867.47;;;18.50;32.02
79625;BME280;69101;45.534;10.218;2023-04-08T05:29:47;99873.38;;;18.52;31.96
79625;BME280;69101;45.534;10.218;2023-04-08T05:32:12;99874.19;;;18.53;31.95
79625;BME280;69101;45.534;10.218;2023-04-08T05:34:38;99877.19;;;18.50;31.64
79625;BME280;69101;45.534;10.218;2023-04-08T05:37:03;99866.34;;;18.45;32.15
79625;BME280;69101;45.534;10.218;2023-04-08T05:39:28;99881.00;;;18.47;32.07
79625;BME280;69101;45.534;10.218;2023-04-08T05:41:54;99881.63;;;18.49;32.25
79625;BME280;69101;45.534;10.218;2023-04-08T05:44:19;99893.00;;;18.50;32.46
79625;BME280;69101;45.534;10.218;2023-04-08T05:46:45;99895.81;;;18.48;32.34
79625;BME280;69101;45.534;10.218;2023-04-08T05:49:10;99892.34;;;18.48;32.33
79625;BME280;69101;45.534;10.218;2023-04-08T05:51:36;99898.25;;;18.50;32.25
79625;BME280;69101;45.534;10.218;2023-04-08T05:54:01;99900.06;;;18.49;32.65
79625;BME280;69101;45.534;10.218;2023-04-08T05:56:27;99913.69;;;18.53;32.46
79625;BME280;69101;45.534;10.218;2023-04-08T05:58:52;99898.88;;;18.52;32.42
79625;BME280;69101;45.534;10.218;2023-04-08T06:01:18;99909.88;;;18.55;32.51
79625;BME280;69101;45.534;10.218;2023-04-08T06:03:43;99912.31;;;18.57;32.56
79625;BME280;69101;45.534;10.218;2023-04-08T06:06:09;99912.53;;;18.55;32.78
79625;BME280;69101;45.534;10.218;2023-04-08T06:08:36;99913.97;;;18.58;32.76
79625;BME280;69101;45.534;10.218;2023-04-08T06:11:01;99923.88;;;18.56;32.48
79625;BME280;69101;45.534;10.218;2023-04-08T06:13:28;99914.59;;;18.60;32.92
79625;BME280;69101;45.534;10.218;2023-04-08T06:15:53;99921.31;;;18.62;32.93
79625;BME280;69101;45.534;10.218;2023-04-08T06:18:19;99922.69;;;18.58;32.89
79625;BME280;69101;45.534;10.218;2023-04-08T06:20:45;99928.13;;;18.57;32.88
79625;BME280;69101;45.534;10.218;2023-04-08T06:23:10;99926.78;;;18.61;32.90
79625;BME280;69101;45.534;10.218;2023-04-08T06:25:36;99926.31;;;18.57;32.85
79625;BME280;69101;45.534;10.218;2023-04-08T06:28:02;99928.59;;;18.60;32.95
79625;BME280;69101;45.534;10.218;2023-04-08T06:30:27;99934.69;;;18.61;32.89
79625;BME280;69101;45.534;10.218;2023-04-08T06:32:52;99935.06;;;18.58;32.89
79625;BME280;69101;45.534;10.218;2023-04-08T06:35:18;99933.03;;;18.60;33.21
79625;BME280;69101;45.534;10.218;2023-04-08T06:37:43;99935.13;;;18.64;33.12
79625;BME280;69101;45.534;10.218;2023-04-08T06:40:09;99935.31;;;18.63;33.15
79625;BME280;69101;45.534;10.218;2023-04-08T06:42:35;99934.06;;;18.59;33.07
79625;BME280;69101;45.534;10.218;2023-04-08T06:45:03;99926.59;;;18.62;33.20
79625;BME280;69101;45.534;10.218;2023-04-08T06:47:29;99929.22;;;18.62;33.34
79625;BME280;69101;45.534;10.218;2023-04-08T06:49:54;99937.59;;;18.66;33.47
79625;BME280;69101;45.534;10.218;2023-04-08T06:52:20;99936.97;;;18.64;33.50
79625;BME280;69101;45.534;10.218;2023-04-08T06:54:45;99937.41;;;18.67;33.41
79625;BME280;69101;45.534;10.218;2023-04-08T06:57:11;99939.22;;;18.67;33.55
79625;BME280;69101;45.534;10.218;2023-04-08T06:59:36;99930.53;;;18.66;33.26
79625;BME280;69101;45.534;10.218;2023-04-08T07:02:02;99939.88;;;18.69;33.59
79625;BME280;69101;45.534;10.218;2023-04-08T07:04:27;99937.25;;;18.69;33.58
79625;BME280;69101;45.534;10.218;2023-04-08T07:06:52;99935.69;;;18.74;33.35
79625;BME280;69101;45.534;10.218;2023-04-08T07:09:18;99937.94;;;18.77;33.43
79625;BME280;69101;45.534;10.218;2023-04-08T07:11:43;99938.97;;;18.77;33.41
79625;BME280;69101;45.534;10.218;2023-04-08T07:14:09;99934.69;;;18.75;33.23
79625;BME280;69101;45.534;10.218;2023-04-08T07:16:34;99941.03;;;18.81;33.22
79625;BME280;69101;45.534;10.218;2023-04-08T07:18:59;99944.22;;;18.77;33.65
79625;BME280;69101;45.534;10.218;2023-04-08T07:21:26;99950.59;;;18.82;33.61
79625;BME280;69101;45.534;10.218;2023-04-08T07:23:51;99941.88;;;18.82;33.66
79625;BME280;69101;45.534;10.218;2023-04-08T07:26:17;99952.84;;;18.85;33.41
79625;BME280;69101;45.534;10.218;2023-04-08T07:28:42;99954.03;;;18.83;33.62
79625;BME280;69101;45.534;10.218;2023-04-08T07:31:09;99940.69;;;18.84;33.46
79625;BME280;69101;45.534;10.218;2023-04-08T07:33:35;99952.06;;;18.85;33.47
79625;BME280;69101;45.534;10.218;2023-04-08T07:36:01;99954.84;;;18.83;33.75
79625;BME280;69101;45.534;10.218;2023-04-08T07:38:26;99947.13;;;18.82;33.57
79625;BME280;69101;45.534;10.218;2023-04-08T07:40:52;99951.22;;;18.84;33.63
79625;BME280;69101;45.534;10.218;2023-04-08T07:43:17;99958.13;;;18.85;33.63
79625;BME280;69101;45.534;10.218;2023-04-08T07:45:43;99952.06;;;18.85;33.78
79625;BME280;69101;45.534;10.218;2023-04-08T07:48:08;99962.19;;;18.88;33.70
79625;BME280;69101;45.534;10.218;2023-04-08T07:50:35;99968.41;;;18.95;33.51
79625;BME280;69101;45.534;10.218;2023-04-08T07:53:01;99960.75;;;18.85;33.75
79625;BME280;69101;45.534;10.218;2023-04-08T07:55:27;99965.50;;;18.90;33.88
79625;BME280;69101;45.534;10.218;2023-04-08T07:57:52;99964.84;;;18.88;33.85
79625;BME280;69101;45.534;10.218;2023-04-08T08:00:18;99968.28;;;18.88;33.77
79625;BME280;69101;45.534;10.218;2023-04-08T08:02:46;99970.78;;;18.90;33.62
79625;BME280;69101;45.534;10.218;2023-04-08T08:05:12;99967.94;;;18.91;33.94
79625;BME280;69101;45.534;10.218;2023-04-08T08:07:37;99963.94;;;18.95;33.82
79625;BME280;69101;45.534;10.218;2023-04-08T08:10:03;99971.19;;;18.93;34.05
79625;BME280;69101;45.534;10.218;2023-04-08T08:12:28;99966.28;;;18.90;34.03
79625;BME280;69101;45.534;10.218;2023-04-08T08:14:54;99967.56;;;18.94;34.03
79625;BME280;69101;45.534;10.218;2023-04-08T08:17:23;99962.31;;;18.94;34.08
79625;BME280;69101;45.534;10.218;2023-04-08T08:19:48;99973.28;;;18.98;33.96
79625;BME280;69101;45.534;10.218;2023-04-08T08:22:14;99969.66;;;18.99;33.92
79625;BME280;69101;45.534;10.218;2023-04-08T08:24:40;99962.31;;;18.94;33.97
79625;BME280;69101;45.534;10.218;2023-04-08T08:27:05;99971.84;;;18.95;33.82
79625;BME280;69101;45.534;10.218;2023-04-08T08:29:31;99972.84;;;18.94;33.88
79625;BME280;69101;45.534;10.218;2023-04-08T08:31:56;99965.22;;;18.99;33.89
79625;BME280;69101;45.534;10.218;2023-04-08T08:34:22;99967.22;;;18.97;34.18
79625;BME280;69101;45.534;10.218;2023-04-08T08:36:47;99968.66;;;19.00;33.99
79625;BME280;69101;45.534;10.218;2023-04-08T08:39:13;99970.47;;;18.99;34.21
79625;BME280;69101;45.534;10.218;2023-04-08T08:41:39;99974.09;;;18.98;34.06
79625;BME280;69101;45.534;10.218;2023-04-08T08:46:51;99977.84;;;19.04;33.79
79625;BME280;69101;45.534;10.218;2023-04-08T08:49:17;99975.66;;;19.07;33.98
79625;BME280;69101;45.534;10.218;2023-04-08T08:51:44;99968.75;;;19.06;33.70
79625;BME280;69101;45.534;10.218;2023-04-08T08:54:10;99970.56;;;19.06;33.94
79625;BME280;69101;45.534;10.218;2023-04-08T08:56:35;99976.66;;;19.06;34.16
79625;BME280;69101;45.534;10.218;2023-04-08T08:59:01;99975.81;;;19.06;34.14
79625;BME280;69101;45.534;10.218;2023-04-08T09:01:33;99970.38;;;19.07;34.05
79625;BME280;69101;45.534;10.218;2023-04-08T09:06:36;99972.00;;;19.08;34.02
79625;BME280;69101;45.534;10.218;2023-04-08T09:09:02;99973.66;;;19.09;34.12
79625;BME280;69101;45.534;10.218;2023-04-08T09:11:30;99976.28;;;19.09;34.16
79625;BME280;69101;45.534;10.218;2023-04-08T09:13:56;99972.47;;;19.12;33.91
79625;BME280;69101;45.534;10.218;2023-04-08T09:16:21;99969.84;;;19.12;34.00
79625;BME280;69101;45.534;10.218;2023-04-08T09:18:48;99974.28;;;19.11;34.23
79625;BME280;69101;45.534;10.218;2023-04-08T09:21:15;99975.09;;;19.12;34.09
79625;BME280;69101;45.534;10.218;2023-04-08T09:23:42;99971.47;;;19.13;33.98
79625;BME280;69101;45.534;10.218;2023-04-08T09:26:09;99978.38;;;19.14;34.21
79625;BME280;69101;45.534;10.218;2023-04-08T09:28:36;99976.56;;;19.14;33.96
79625;BME280;69101;45.534;10.218;2023-04-08T09:31:17;99976.75;;;19.13;34.57
79625;BME280;69101;45.534;10.218;2023-04-08T09:33:43;99976.28;;;19.09;34.18
79625;BME280;69101;45.534;10.218;2023-04-08T09:36:09;99975.72;;;19.14;34.24
79625;BME280;69101;45.534;10.218;2023-04-08T09:38:34;99973.91;;;19.14;34.22
79625;BME280;69101;45.534;10.218;2023-04-08T09:41:04;99978.81;;;19.17;34.42
79625;BME280;69101;45.534;10.218;2023-04-08T09:43:31;99968.28;;;19.17;34.29
79625;BME280;69101;45.534;10.218;2023-04-08T09:46:01;99969.09;;;19.18;34.29
79625;BME280;69101;45.534;10.218;2023-04-08T09:48:31;99962.66;;;19.20;34.13
79625;BME280;69101;45.534;10.218;2023-04-08T09:51:02;99968.53;;;19.22;34.41
79625;BME280;69101;45.534;10.218;2023-04-08T09:53:37;99976.47;;;19.22;34.33
79625;BME280;69101;45.534;10.218;2023-04-08T09:56:10;99968.53;;;19.22;34.39
79625;BME280;69101;45.534;10.218;2023-04-08T09:59:01;99964.63;;;19.18;34.38
79625;BME280;69101;45.534;10.218;2023-04-08T10:01:36;99966.28;;;19.19;34.48
79625;BME280;69101;45.534;10.218;2023-04-08T10:04:05;99959.34;;;19.18;34.43
79625;BME280;69101;45.534;10.218;2023-04-08T10:06:33;99963.28;;;19.22;34.21
79625;BME280;69101;45.534;10.218;2023-04-08T10:09:00;99960.06;;;19.27;33.98
79625;BME280;69101;45.534;10.218;2023-04-08T10:11:27;99960.91;;;19.27;34.39
79625;BME280;69101;45.534;10.218;2023-04-08T10:13:52;99959.25;;;19.26;34.50
79625;BME280;69101;45.534;10.218;2023-04-08T10:16:23;99956.63;;;19.26;34.59
79625;BME280;69101;45.534;10.218;2023-04-08T10:18:50;99955.00;;;19.25;34.51
79625;BME280;69101;45.534;10.218;2023-04-08T10:21:36;99945.06;;;19.27;34.21
79625;BME280;69101;45.534;10.218;2023-04-08T10:24:05;99944.25;;;19.27;34.14
79625;BME280;69101;45.534;10.218;2023-04-08T10:26:32;99945.91;;;19.28;34.48
79625;BME280;69101;45.534;10.218;2023-04-08T10:31:53;99936.81;;;19.30;34.37
79625;BME280;69101;45.534;10.218;2023-04-08T10:34:23;99937.63;;;19.31;34.37
79625;BME280;69101;45.534;10.218;2023-04-08T10:36:50;99938.41;;;19.31;34.03
79625;BME280;69101;45.534;10.218;2023-04-08T10:39:15;99927.88;;;19.31;34.31
79625;BME280;69101;45.534;10.218;2023-04-08T10:41:44;99939.69;;;19.35;34.42
79625;BME280;69101;45.534;10.218;2023-04-08T10:44:20;99933.59;;;19.35;34.29
79625;BME280;69101;45.534;10.218;2023-04-08T10:46:46;99933.41;;;19.36;34.34
79625;BME280;69101;45.534;10.218;2023-04-08T10:49:15;99931.25;;;19.40;34.19
79625;BME280;69101;45.534;10.218;2023-04-08T10:51:42;99928.59;;;19.40;34.20
79625;BME280;69101;45.534;10.218;2023-04-08T10:54:10;99928.25;;;19.43;34.16
79625;BME280;69101;45.534;10.218;2023-04-08T10:56:43;99920.34;;;19.43;34.39
79625;BME280;69101;45.534;10.218;2023-04-08T10:59:09;99928.41;;;19.42;34.33
79625;BME280;69101;45.534;10.218;2023-04-08T11:01:38;99924.78;;;19.43;34.37
79625;BME280;69101;45.534;10.218;2023-04-08T11:04:15;99920.94;;;19.45;34.36
79625;BME280;69101;45.534;10.218;2023-04-08T11:06:43;99918.94;;;19.47;34.21
79625;BME280;69101;45.534;10.218;2023-04-08T11:09:09;99920.75;;;19.47;34.44
79625;BME280;69101;45.534;10.218;2023-04-08T11:11:35;99915.31;;;19.48;34.28
79625;BME280;69101;45.534;10.218;2023-04-08T11:14:01;99909.47;;;19.53;34.31
79625;BME280;69101;45.534;10.218;2023-04-08T11:16:27;99911.28;;;19.52;34.48
79625;BME280;69101;45.534;10.218;2023-04-08T11:18:53;99910.44;;;19.52;34.35
79625;BME280;69101;45.534;10.218;2023-04-08T11:21:20;99907.81;;;19.52;34.27
79625;BME280;69101;45.534;10.218;2023-04-08T11:23:50;99908.63;;;19.52;34.31
79625;BME280;69101;45.534;10.218;2023-04-08T11:26:17;99905.84;;;19.54;34.51
79625;BME280;69101;45.534;10.218;2023-04-08T11:28:43;99904.38;;;19.51;34.34
79625;BME280;69101;45.534;10.218;2023-04-08T11:31:10;99900.72;;;19.52;34.41
79625;BME280;69101;45.534;10.218;2023-04-08T11:33:36;99899.91;;;19.52;34.39
79625;BME280;69101;45.534;10.218;2023-04-08T11:36:03;99893.72;;;19.59;34.31
79625;BME280;69101;45.534;10.218;2023-04-08T11:38:28;99894.91;;;19.57;34.33
79625;BME280;69101;45.534;10.218;2023-04-08T11:40:55;99892.28;;;19.57;34.38
79625;BME280;69101;45.534;10.218;2023-04-08T11:43:21;99883.16;;;19.59;34.55
79625;BME280;69101;45.534;10.218;2023-04-08T11:45:47;99888.03;;;19.62;34.16
79625;BME280;69101;45.534;10.218;2023-04-08T11:48:14;99880.31;;;19.61;34.17
79625;BME280;69101;45.534;10.218;2023-04-08T11:50:41;99882.59;;;19.64;34.41
79625;BME280;69101;45.534;10.218;2023-04-08T11:53:39;99881.19;;;19.68;34.37
79625;BME280;69101;45.534;10.218;2023-04-08T11:56:21;99884.84;;;19.67;34.37
79625;BME280;69101;45.534;10.218;2023-04-08T11:58:48;99883.22;;;19.66;34.48
79625;BME280;69101;45.534;10.218;2023-04-08T12:01:13;99880.00;;;19.70;34.45
79625;BME280;69101;45.534;10.218;2023-04-08T12:03:52;99874.72;;;19.70;34.51
79625;BME280;69101;45.534;10.218;2023-04-08T12:06:18;99877.56;;;19.69;34.61
79625;BME280;69101;45.534;10.218;2023-04-08T12:08:43;99876.16;;;19.73;34.28
79625;BME280;69101;45.534;10.218;2023-04-08T12:11:09;99875.16;;;19.74;34.10
79625;BME280;69101;45.534;10.218;2023-04-08T12:13:35;99865.59;;;19.73;34.19
79625;BME280;69101;45.534;10.218;2023-04-08T12:16:01;99870.94;;;19.79;34.12
79625;BME280;69101;45.534;10.218;2023-04-08T12:18:26;99875.03;;;19.82;34.17
79625;BME280;69101;45.534;10.218;2023-04-08T12:20:52;99870.75;;;19.81;34.27
79625;BME280;69101;45.534;10.218;2023-04-08T12:23:17;99864.22;;;19.77;34.16
79625;BME280;69101;45.534;10.218;2023-04-08T12:25:43;99871.13;;;19.78;34.34
79625;BME280;69101;45.534;10.218;2023-04-08T12:28:08;99863.03;;;19.79;33.77
79625;BME280;69101;45.534;10.218;2023-04-08T12:30:35;99862.81;;;19.81;34.05
79625;BME280;69101;45.534;10.218;2023-04-08T12:33:01;99858.16;;;19.83;34.14
79625;BME280;69101;45.534;10.218;2023-04-08T12:35:26;99865.72;;;19.86;34.16
79625;BME280;69101;45.534;10.218;2023-04-08T12:37:52;99860.06;;;19.89;33.87
79625;BME280;69101;45.534;10.218;2023-04-08T12:40:18;99856.41;;;19.90;33.76
79625;BME280;69101;45.534;10.218;2023-04-08T12:42:43;99856.41;;;19.90;33.95
79625;BME280;69101;45.534;10.218;2023-04-08T12:45:09;99861.06;;;19.88;33.64
79625;BME280;69101;45.534;10.218;2023-04-08T12:47:34;99848.09;;;19.93;33.75
79625;BME280;69101;45.534;10.218;2023-04-08T12:49:59;99860.09;;;19.95;33.85
79625;BME280;69101;45.534;10.218;2023-04-08T12:52:25;99854.03;;;19.95;33.73
79625;BME280;69101;45.534;10.218;2023-04-08T12:54:51;99842.81;;;19.93;33.86
79625;BME280;69101;45.534;10.218;2023-04-08T12:57:16;99845.66;;;19.91;34.08
79625;BME280;69101;45.534;10.218;2023-04-08T12:59:41;99844.06;;;19.97;34.04